createdAt,value
2023-03-28T00:01:01.596Z,5.45
2023-03-28T00:03:29.488Z,4.68
2023-03-28T00:06:02.280Z,4.75
2023-03-28T00:08:29.506Z,5.68
2023-03-28T00:11:12.514Z,4.38
2023-03-28T00:13:39.097Z,5.25
2023-03-28T00:16:08.977Z,4.53
2023-03-28T00:18:39.155Z,4.43
2023-03-28T00:21:29.226Z,4.57
2023-03-28T00:24:01.995Z,5.15
2023-03-28T00:26:32.370Z,4.57
2023-03-28T00:29:01.381Z,4.40
2023-03-28T00:31:28.447Z,3.60
2023-03-28T00:33:55.687Z,3.92
2023-03-28T00:36:26.400Z,3.97
2023-03-28T00:38:53.938Z,3.65
2023-03-28T00:41:22.441Z,3.63
2023-03-28T00:43:52.726Z,3.83
2023-03-28T00:46:29.914Z,3.65
2023-03-28T00:49:05.833Z,3.58
2023-03-28T00:51:37.382Z,3.20
2023-03-28T00:54:05.101Z,3.78
2023-03-28T00:56:36.935Z,3.45
2023-03-28T00:59:08.012Z,3.00
2023-03-28T01:01:35.524Z,3.78
2023-03-28T01:04:03.194Z,3.42
2023-03-28T01:06:37.779Z,3.53
2023-03-28T01:09:08.048Z,3.78
2023-03-28T01:11:39.245Z,3.10
2023-03-28T01:14:07.880Z,3.10
2023-03-28T01:16:42.143Z,2.90
2023-03-28T01:20:09.397Z,3.05
2023-03-28T01:23:09.708Z,3.08
2023-03-28T01:25:50.581Z,2.90
2023-03-28T01:28:56.307Z,2.85
2023-03-28T01:31:46.406Z,2.55
2023-03-28T01:34:34.877Z,2.80
2023-03-28T01:37:07.402Z,2.80
2023-03-28T01:40:07.894Z,2.65
2023-03-28T01:43:06.210Z,3.30
2023-03-28T01:45:44.882Z,2.63
2023-03-28T01:48:33.290Z,2.65
2023-03-28T01:51:10.833Z,2.38
2023-03-28T01:53:55.914Z,2.45
2023-03-28T01:56:37.449Z,2.40
2023-03-28T01:59:20.453Z,2.53
2023-03-28T02:02:35.392Z,2.80
2023-03-28T02:05:05.621Z,2.42
2023-03-28T02:07:33.847Z,2.10
2023-03-28T02:10:03.979Z,2.50
2023-03-28T02:12:36.759Z,2.17
2023-03-28T02:15:06.909Z,2.40
2023-03-28T02:17:38.286Z,2.17
2023-03-28T02:20:11.699Z,2.20
2023-03-28T02:22:47.174Z,2.70
2023-03-28T02:25:14.243Z,2.20
2023-03-28T02:27:43.069Z,2.03
2023-03-28T02:30:10.137Z,2.00
2023-03-28T02:32:36.750Z,2.10
2023-03-28T02:35:05.798Z,1.90
2023-03-28T02:38:07.787Z,2.45
2023-03-28T02:40:49.262Z,2.17
2023-03-28T02:43:27.742Z,2.00
2023-03-28T02:46:18.291Z,1.70
2023-03-28T02:48:52.272Z,2.08
2023-03-28T02:51:40.470Z,2.28
2023-03-28T02:54:34.768Z,1.85
2023-03-28T02:57:18.783Z,1.92
2023-03-28T03:00:19.151Z,1.60
2023-03-28T03:02:49.438Z,1.70
2023-03-28T03:05:17.639Z,2.10
2023-03-28T03:07:44.238Z,1.40
2023-03-28T03:10:12.111Z,1.88
2023-03-28T03:12:39.130Z,1.70
2023-03-28T03:15:07.251Z,2.35
2023-03-28T03:17:33.789Z,1.80
2023-03-28T03:20:06.605Z,1.77
2023-03-28T03:22:34.437Z,1.87
2023-03-28T03:25:08.159Z,1.63
2023-03-28T03:27:36.838Z,1.65
2023-03-28T03:30:04.799Z,1.55
2023-03-28T03:32:31.694Z,1.70
2023-03-28T03:34:58.566Z,1.95
2023-03-28T03:37:25.085Z,1.80
2023-03-28T03:39:51.582Z,1.42
2023-03-28T03:42:18.078Z,1.85
2023-03-28T03:44:44.575Z,1.70
2023-03-28T03:47:11.112Z,1.50
2023-03-28T03:49:38.101Z,1.30
2023-03-28T03:52:04.798Z,1.40
2023-03-28T03:54:31.356Z,1.63
2023-03-28T03:56:57.932Z,1.23
2023-03-28T03:59:24.667Z,1.50
2023-03-28T04:01:51.403Z,1.60
2023-03-28T04:04:17.971Z,1.67
2023-03-28T04:06:44.590Z,1.08
2023-03-28T04:09:11.458Z,1.30
2023-03-28T04:11:37.957Z,1.10
2023-03-28T04:14:04.720Z,1.33
2023-03-28T04:16:40.787Z,1.20
2023-03-28T04:19:08.241Z,1.42
2023-03-28T04:21:35.278Z,1.42
2023-03-28T04:24:01.943Z,1.10
2023-03-28T04:26:29.636Z,1.40
2023-03-28T04:28:57.213Z,1.20
2023-03-28T04:31:28.900Z,1.45
2023-03-28T04:33:56.277Z,1.50
2023-03-28T04:36:25.714Z,1.70
2023-03-28T04:38:52.578Z,1.52
2023-03-28T04:41:19.173Z,1.70
2023-03-28T04:43:45.765Z,2.28
2023-03-28T04:46:12.274Z,1.60
2023-03-28T04:48:38.838Z,2.03
2023-03-28T04:51:05.862Z,1.60
2023-03-28T04:53:32.549Z,1.70
2023-03-28T04:56:00.158Z,2.10
2023-03-28T04:58:26.913Z,1.75
2023-03-28T05:00:54.135Z,1.95
2023-03-28T05:03:23.066Z,2.55
2023-03-28T05:05:52.622Z,2.35
2023-03-28T05:08:22.569Z,3.03
2023-03-28T05:10:50.509Z,2.10
2023-03-28T05:13:17.460Z,2.42
2023-03-28T05:15:46.633Z,2.63
2023-03-28T05:18:13.206Z,2.58
2023-03-28T05:20:39.785Z,2.28
2023-03-28T05:23:06.539Z,2.15
2023-03-28T05:25:33.782Z,2.60
2023-03-28T05:28:01.425Z,2.70
2023-03-28T05:30:28.061Z,2.60
2023-03-28T05:32:54.785Z,2.63
2023-03-28T05:35:21.428Z,2.40
2023-03-28T05:37:47.942Z,2.45
2023-03-28T05:40:15.437Z,2.28
2023-03-28T05:42:42.733Z,2.70
2023-03-28T05:45:11.470Z,2.70
2023-03-28T05:47:38.148Z,2.63
2023-03-28T05:50:05.341Z,2.90
2023-03-28T05:52:31.841Z,2.97
2023-03-28T05:54:58.396Z,2.30
2023-03-28T05:57:25.552Z,2.50
2023-03-28T05:59:52.110Z,2.67
2023-03-28T06:02:20.580Z,2.88
2023-03-28T06:04:47.533Z,2.97
2023-03-28T06:07:14.773Z,2.75
2023-03-28T06:09:42.394Z,2.80
2023-03-28T06:12:09.138Z,2.78
2023-03-28T06:14:35.720Z,2.33
2023-03-28T06:17:02.358Z,2.40
2023-03-28T06:19:28.961Z,2.70
2023-03-28T06:21:55.489Z,2.65
2023-03-28T06:24:22.248Z,2.72
2023-03-28T06:26:48.820Z,2.58
2023-03-28T06:29:16.301Z,2.47
2023-03-28T06:31:43.031Z,2.00
2023-03-28T06:34:09.581Z,2.70
2023-03-28T06:36:36.102Z,2.25
2023-03-28T06:39:02.980Z,2.63
2023-03-28T06:41:29.565Z,2.00
2023-03-28T06:43:58.928Z,2.72
2023-03-28T06:46:25.531Z,2.63
2023-03-28T06:48:52.192Z,2.20
2023-03-28T06:51:18.670Z,2.30
2023-03-28T06:53:50.751Z,2.05
2023-03-28T06:56:17.320Z,2.60
2023-03-28T06:58:46.523Z,2.55
2023-03-28T07:01:13.114Z,2.78
2023-03-28T07:03:39.793Z,2.47
2023-03-28T07:06:08.146Z,2.40
2023-03-28T07:08:35.621Z,2.35
2023-03-28T07:11:02.542Z,1.98
2023-03-28T07:13:29.538Z,2.08
2023-03-28T07:16:03.761Z,2.30
2023-03-28T07:18:30.330Z,2.10
2023-03-28T07:21:03.854Z,2.15
2023-03-28T07:23:31.005Z,1.65
2023-03-28T07:25:57.531Z,2.20
2023-03-28T07:28:24.313Z,1.95
2023-03-28T07:30:54.178Z,2.22
2023-03-28T07:33:26.661Z,1.77
2023-03-28T07:36:00.706Z,1.80
2023-03-28T07:38:27.218Z,2.20
2023-03-28T07:40:53.726Z,1.90
2023-03-28T07:43:20.253Z,1.80
2023-03-28T07:45:47.681Z,2.20
2023-03-28T07:48:14.210Z,2.28
2023-03-28T07:50:42.918Z,2.13
2023-03-28T07:53:09.550Z,2.13
2023-03-28T07:58:08.867Z,2.00
2023-03-28T08:00:35.543Z,1.80
2023-03-28T08:03:02.161Z,2.10
2023-03-28T08:05:28.919Z,1.83
2023-03-28T08:07:55.476Z,1.92
2023-03-28T08:10:22.077Z,1.90
2023-03-28T08:12:48.694Z,2.00
2023-03-28T08:15:15.373Z,2.22
2023-03-28T08:17:41.998Z,1.83
2023-03-28T08:20:10.616Z,2.33
2023-03-28T08:22:37.515Z,2.10
2023-03-28T08:25:04.841Z,2.13
2023-03-28T08:27:31.447Z,2.25
2023-03-28T08:29:58.160Z,2.10
2023-03-28T08:32:25.381Z,2.20
2023-03-28T08:34:51.940Z,2.17
2023-03-28T08:37:19.142Z,2.22
2023-03-28T08:39:45.736Z,1.70
2023-03-28T08:42:18.251Z,2.15
2023-03-28T08:45:26.798Z,2.20
2023-03-28T08:48:22.203Z,1.73
2023-03-28T08:50:54.692Z,2.05
2023-03-28T08:53:34.292Z,2.30
2023-03-28T08:56:03.967Z,1.70
2023-03-28T08:58:42.472Z,1.50
2023-03-28T09:01:10.193Z,1.75
2023-03-28T09:03:36.938Z,1.55
2023-03-28T09:06:24.982Z,1.98
2023-03-28T09:09:00.769Z,2.00
2023-03-28T09:11:42.161Z,2.22
2023-03-28T09:14:17.382Z,1.80
2023-03-28T09:16:53.762Z,1.83
2023-03-28T09:19:48.248Z,1.90
2023-03-28T09:22:33.415Z,1.55
2023-03-28T09:25:37.699Z,1.80
2023-03-28T09:28:28.586Z,1.90
2023-03-28T09:30:58.615Z,1.80
2023-03-28T09:33:31.266Z,1.73
2023-03-28T09:35:57.826Z,1.88
2023-03-28T09:38:35.933Z,1.50
2023-03-28T09:41:11.154Z,1.33
2023-03-28T09:43:59.129Z,1.95
2023-03-28T09:46:48.700Z,1.95
2023-03-28T09:49:18.250Z,1.60
2023-03-28T09:51:45.649Z,1.67
2023-03-28T09:54:13.498Z,1.80
2023-03-28T09:56:43.477Z,1.52
2023-03-28T09:59:27.711Z,1.52
2023-03-28T10:01:57.651Z,1.33
2023-03-28T10:04:27.518Z,1.75
2023-03-28T10:07:09.808Z,1.83
2023-03-28T10:09:50.841Z,1.30
2023-03-28T10:12:35.727Z,1.40
2023-03-28T10:15:02.866Z,1.70
2023-03-28T10:17:34.771Z,1.75
2023-03-28T10:20:18.187Z,1.63
2023-03-28T10:22:47.530Z,1.48
2023-03-28T10:25:38.634Z,1.40
2023-03-28T10:28:07.297Z,1.52
2023-03-28T10:30:36.843Z,1.90
2023-03-28T10:33:15.149Z,1.65
2023-03-28T10:35:45.731Z,1.45
2023-03-28T10:38:18.150Z,1.52
2023-03-28T10:41:02.800Z,1.60
2023-03-28T10:43:33.005Z,1.25
2023-03-28T10:46:02.597Z,2.33
2023-03-28T10:48:33.667Z,1.67
2023-03-28T10:51:08.513Z,1.17
2023-03-28T10:54:08.817Z,1.50
2023-03-28T10:56:41.407Z,1.63
2023-03-28T10:59:20.514Z,1.40
2023-03-28T11:01:52.954Z,1.23
2023-03-28T11:04:28.105Z,2.17
2023-03-28T11:07:10.667Z,1.52
2023-03-28T11:09:45.874Z,1.30
2023-03-28T11:12:28.670Z,1.60
2023-03-28T11:15:23.956Z,1.33
2023-03-28T11:18:14.285Z,1.20
2023-03-28T11:20:54.406Z,1.10
2023-03-28T11:23:38.621Z,1.80
2023-03-28T11:26:28.172Z,1.80
2023-03-28T11:29:06.913Z,1.20
2023-03-28T11:31:41.277Z,1.67
2023-03-28T11:34:19.580Z,1.95
2023-03-28T11:36:55.519Z,1.85
2023-03-28T11:39:42.500Z,1.90
2023-03-28T11:42:39.705Z,2.22
2023-03-28T11:45:50.328Z,1.38
2023-03-28T11:48:19.270Z,1.42
2023-03-28T11:51:02.674Z,1.88
2023-03-28T11:53:35.880Z,1.60
2023-03-28T11:56:29.628Z,1.38
2023-03-28T11:59:06.141Z,1.60
2023-03-28T12:01:37.922Z,1.35
2023-03-28T12:04:27.446Z,1.35
2023-03-28T12:07:02.889Z,1.50
2023-03-28T12:09:33.295Z,1.58
2023-03-28T12:12:13.631Z,1.38
2023-03-28T12:14:55.339Z,1.25
2023-03-28T12:17:27.167Z,1.10
2023-03-28T12:19:54.061Z,1.15
2023-03-28T12:22:30.207Z,1.63
2023-03-28T12:25:13.760Z,1.23
2023-03-28T12:27:57.689Z,1.33
2023-03-28T12:30:51.636Z,1.00
2023-03-28T12:33:33.124Z,1.58
2023-03-28T12:36:17.710Z,1.33
2023-03-28T12:38:57.809Z,1.58
2023-03-28T12:41:38.064Z,1.10
2023-03-28T12:44:14.539Z,1.30
2023-03-28T12:47:04.610Z,1.52
2023-03-28T12:49:39.400Z,1.13
2023-03-28T12:52:07.885Z,1.10
2023-03-28T12:54:41.518Z,1.50
2023-03-28T12:57:07.951Z,1.40
2023-03-28T12:59:40.877Z,1.20
2023-03-28T13:02:18.469Z,1.80
2023-03-28T13:04:55.444Z,1.20
2023-03-28T13:08:00.963Z,1.80
2023-03-28T13:10:45.451Z,1.20
2023-03-28T13:13:32.046Z,1.60
2023-03-28T13:16:06.236Z,1.40
2023-03-28T13:18:34.568Z,1.40
2023-03-28T13:21:04.474Z,1.10
2023-03-28T13:23:33.465Z,1.70
2023-03-28T13:26:03.109Z,1.27
2023-03-28T13:28:31.736Z,1.58
2023-03-28T13:31:05.856Z,1.27
2023-03-28T13:33:35.364Z,1.70
2023-03-28T13:36:02.062Z,1.65
2023-03-28T13:38:28.831Z,1.45
2023-03-28T13:41:06.405Z,1.08
2023-03-28T13:43:40.018Z,1.20
2023-03-28T13:46:13.179Z,1.48
2023-03-28T13:49:19.076Z,1.52
2023-03-28T13:52:06.668Z,1.40
2023-03-28T13:54:33.565Z,1.27
2023-03-28T13:57:12.864Z,1.10
2023-03-28T13:59:55.602Z,1.20
2023-03-28T14:02:42.928Z,1.40
2023-03-28T14:05:12.551Z,1.40
2023-03-28T14:07:39.565Z,1.15
2023-03-28T14:10:28.725Z,1.70
2023-03-28T14:12:59.946Z,0.90
2023-03-28T14:15:31.427Z,1.08
2023-03-28T14:17:59.690Z,1.77
2023-03-28T14:20:26.764Z,1.10
2023-03-28T14:23:00.508Z,1.30
2023-03-28T14:25:28.600Z,1.23
2023-03-28T14:27:56.784Z,1.45
2023-03-28T14:30:29.943Z,1.35
2023-03-28T14:33:01.176Z,1.20
2023-03-28T14:35:32.569Z,1.55
2023-03-28T14:38:01.605Z,1.33
2023-03-28T14:40:34.731Z,1.42
2023-03-28T14:43:10.650Z,1.40
2023-03-28T14:45:41.092Z,1.45
2023-03-28T14:48:13.172Z,1.48
2023-03-28T14:50:42.087Z,1.80
2023-03-28T14:53:16.876Z,1.33
2023-03-28T14:55:44.051Z,1.50
2023-03-28T14:58:13.450Z,1.10
2023-03-28T15:00:46.819Z,1.27
2023-03-28T15:03:23.172Z,1.23
2023-03-28T15:05:52.220Z,0.98
2023-03-28T15:08:24.743Z,1.38
2023-03-28T15:10:54.478Z,1.17
2023-03-28T15:13:28.651Z,1.67
2023-03-28T15:15:56.884Z,1.40
2023-03-28T15:18:28.681Z,1.58
2023-03-28T15:20:58.866Z,1.40
2023-03-28T15:23:43.847Z,1.33
2023-03-28T15:26:35.613Z,1.10
2023-03-28T15:29:05.228Z,1.02
2023-03-28T15:31:32.720Z,1.40
2023-03-28T15:33:59.502Z,1.30
2023-03-28T15:36:32.182Z,1.60
2023-03-28T15:39:01.688Z,1.40
2023-03-28T15:41:34.280Z,1.70
2023-03-28T15:44:30.264Z,1.05
2023-03-28T15:47:00.850Z,2.00
2023-03-28T15:49:28.589Z,3.80
2023-03-28T15:52:01.658Z,2.17
2023-03-28T15:54:31.877Z,2.35
2023-03-28T15:57:02.144Z,2.20
2023-03-28T15:59:41.238Z,2.65
2023-03-28T16:02:28.562Z,4.38
2023-03-28T16:05:34.396Z,8.02
2023-03-28T16:08:02.361Z,9.20
2023-03-28T16:10:30.230Z,6.35
2023-03-28T16:12:57.582Z,10.43
2023-03-28T16:15:24.964Z,8.75
2023-03-28T16:17:51.947Z,7.95
2023-03-28T16:20:21.668Z,10.32
2023-03-28T16:22:48.805Z,6.47
2023-03-28T16:25:15.502Z,6.95
2023-03-28T16:27:42.776Z,8.40
2023-03-28T16:30:25.072Z,7.88
2023-03-28T16:32:51.676Z,9.82
2023-03-28T16:35:18.346Z,11.73
2023-03-28T16:37:44.894Z,9.65
2023-03-28T16:40:11.956Z,11.68
2023-03-28T16:42:38.557Z,11.65
2023-03-28T16:45:05.849Z,10.95
2023-03-28T16:47:32.427Z,11.93
2023-03-28T16:49:59.010Z,12.20
2023-03-28T16:52:27.795Z,10.73
2023-03-28T16:54:55.983Z,11.90
2023-03-28T16:57:22.603Z,10.85
2023-03-28T16:59:49.455Z,11.43
2023-03-28T17:02:16.082Z,11.77
2023-03-28T17:04:54.543Z,10.73
2023-03-28T17:07:21.108Z,11.48
2023-03-28T17:09:48.385Z,10.90
2023-03-28T17:12:14.968Z,10.85
2023-03-28T17:14:41.627Z,18.40
2023-03-28T17:17:08.422Z,19.88
2023-03-28T17:19:35.385Z,19.02
2023-03-28T17:22:02.624Z,20.35
2023-03-28T17:24:29.967Z,21.27
2023-03-28T17:26:56.600Z,17.70
2023-03-28T17:29:24.287Z,18.65
2023-03-28T17:31:51.611Z,16.05
2023-03-28T17:34:18.780Z,18.20
2023-03-28T17:36:45.427Z,17.55
2023-03-28T17:39:12.475Z,17.58
2023-03-28T17:41:38.998Z,15.38
2023-03-28T17:44:06.611Z,14.68
2023-03-28T17:46:33.651Z,16.67
2023-03-28T17:49:00.216Z,17.02
2023-03-28T17:51:27.197Z,16.75
2023-03-28T17:53:54.121Z,17.50
2023-03-28T17:56:21.458Z,17.23
2023-03-28T17:58:48.068Z,15.25
2023-03-28T18:01:17.068Z,16.15
2023-03-28T18:03:45.867Z,16.10
2023-03-28T18:06:13.313Z,14.25
2023-03-28T18:08:40.170Z,14.55
2023-03-28T18:11:09.568Z,15.90
2023-03-28T18:13:37.454Z,15.10
2023-03-28T18:16:06.561Z,14.85
2023-03-28T18:18:33.570Z,14.00
2023-03-28T18:21:00.302Z,13.98
2023-03-28T18:23:26.880Z,14.55
2023-03-28T18:25:53.765Z,14.40
2023-03-28T18:28:23.292Z,12.77
2023-03-28T18:30:51.184Z,12.93
2023-03-28T18:33:18.636Z,13.15
2023-03-28T18:35:48.822Z,11.73
2023-03-28T18:38:15.843Z,12.40
2023-03-28T18:40:42.697Z,11.00
2023-03-28T18:43:10.079Z,11.57
2023-03-28T18:45:37.502Z,11.80
2023-03-28T18:48:04.775Z,12.15
2023-03-28T18:50:31.321Z,10.68
2023-03-28T18:52:58.103Z,9.65
2023-03-28T18:55:24.808Z,9.95
2023-03-28T18:57:52.790Z,10.32
2023-03-28T19:00:20.383Z,10.20
2023-03-28T19:02:48.885Z,9.50
2023-03-28T19:05:16.693Z,10.32
2023-03-28T19:07:44.534Z,9.05
2023-03-28T19:10:14.413Z,9.52
2023-03-28T19:12:41.425Z,9.27
2023-03-28T19:15:10.437Z,10.00
2023-03-28T19:17:38.541Z,9.48
2023-03-28T19:20:07.889Z,8.43
2023-03-28T19:22:37.869Z,8.43
2023-03-28T19:25:05.084Z,9.45
2023-03-28T19:27:31.955Z,9.77
2023-03-28T19:29:58.516Z,9.13
2023-03-28T19:32:25.277Z,11.82
2023-03-28T19:34:52.153Z,14.05
2023-03-28T19:37:18.718Z,16.25
2023-03-28T19:39:45.269Z,17.48
2023-03-28T19:42:11.812Z,18.35
2023-03-28T19:44:39.320Z,16.13
2023-03-28T19:47:06.944Z,19.10
2023-03-28T19:49:33.588Z,19.02
2023-03-28T19:52:00.303Z,17.52
2023-03-28T19:54:27.031Z,17.85
2023-03-28T19:56:53.599Z,17.35
2023-03-28T19:59:20.270Z,18.60
2023-03-28T20:01:46.859Z,21.15
2023-03-28T20:04:14.007Z,20.25
2023-03-28T20:06:40.935Z,22.23
2023-03-28T20:09:07.505Z,22.73
2023-03-28T20:11:34.160Z,25.65
2023-03-28T20:14:00.851Z,24.50
2023-03-28T20:16:27.474Z,21.48
2023-03-28T20:18:55.796Z,17.85
2023-03-28T20:21:22.408Z,22.25
2023-03-28T20:23:50.171Z,19.77
2023-03-28T20:26:19.623Z,19.13
2023-03-28T20:28:49.833Z,21.27
2023-03-28T20:31:17.986Z,17.90
2023-03-28T20:33:45.173Z,17.58
2023-03-28T20:36:12.193Z,15.60
2023-03-28T20:38:38.939Z,16.52
2023-03-28T20:41:13.724Z,17.83
2023-03-28T20:43:46.802Z,16.10
2023-03-28T20:46:19.138Z,15.77
2023-03-28T20:48:52.136Z,13.77
2023-03-28T20:51:22.562Z,13.27
2023-03-28T20:53:54.995Z,13.30
2023-03-28T20:56:22.433Z,14.07
2023-03-28T20:58:50.583Z,13.15
2023-03-28T21:01:18.359Z,13.15
2023-03-28T21:03:53.747Z,12.27
2023-03-28T21:06:34.428Z,12.07
2023-03-28T21:09:04.643Z,10.85
2023-03-28T21:11:33.613Z,12.40
2023-03-28T21:14:01.128Z,11.98
2023-03-28T21:16:29.760Z,11.43
2023-03-28T21:18:56.667Z,10.15
2023-03-28T21:21:23.786Z,9.20
2023-03-28T21:23:50.468Z,9.20
2023-03-28T21:26:19.796Z,7.53
2023-03-28T21:28:46.848Z,10.40
2023-03-28T21:31:16.162Z,9.35
2023-03-28T21:33:42.998Z,8.48
2023-03-28T21:36:12.810Z,9.43
2023-03-28T21:38:40.271Z,7.93
2023-03-28T21:41:07.545Z,8.00
2023-03-28T21:43:34.831Z,7.90
2023-03-28T21:46:02.078Z,7.07
2023-03-28T21:48:28.933Z,8.48
2023-03-28T21:51:00.600Z,6.88
2023-03-28T21:53:33.041Z,7.22
2023-03-28T21:55:59.929Z,7.13
2023-03-28T21:58:29.278Z,6.57
2023-03-28T22:00:56.369Z,6.45
2023-03-28T22:03:23.437Z,6.97
2023-03-28T22:05:52.180Z,6.07
2023-03-28T22:08:19.479Z,5.85
2023-03-28T22:10:54.301Z,5.72
2023-03-28T22:13:21.371Z,5.90
2023-03-28T22:15:47.902Z,5.22
2023-03-28T22:18:15.631Z,5.47
2023-03-28T22:20:43.930Z,4.65
2023-03-28T22:23:11.045Z,4.97
2023-03-28T22:25:38.496Z,5.32
2023-03-28T22:28:10.375Z,5.07
2023-03-28T22:30:39.082Z,4.20
2023-03-28T22:33:09.658Z,4.28
2023-03-28T22:35:36.551Z,4.47
2023-03-28T22:38:04.140Z,4.13
2023-03-28T22:40:31.728Z,4.30
2023-03-28T22:42:58.313Z,4.20
2023-03-28T22:45:26.535Z,3.85
2023-03-28T22:47:54.440Z,3.67
2023-03-28T22:50:22.570Z,3.85
2023-03-28T22:52:52.878Z,3.80
2023-03-28T22:55:22.390Z,4.20
2023-03-28T22:57:51.702Z,3.65
2023-03-28T23:00:21.587Z,3.38
2023-03-28T23:02:48.972Z,3.50
2023-03-28T23:05:15.627Z,3.28
2023-03-28T23:07:42.199Z,2.80
2023-03-28T23:10:14.319Z,3.00
2023-03-28T23:12:42.290Z,2.97
2023-03-28T23:15:09.050Z,3.40
2023-03-28T23:17:35.940Z,2.97
2023-03-28T23:20:03.497Z,3.22
2023-03-28T23:22:30.030Z,3.20
2023-03-28T23:24:56.583Z,2.95
2023-03-28T23:27:23.098Z,2.90
2023-03-28T23:29:49.658Z,3.42
2023-03-28T23:32:16.236Z,3.33
2023-03-28T23:34:43.463Z,3.00
2023-03-28T23:37:10.087Z,2.65
2023-03-28T23:39:37.594Z,2.53
2023-03-28T23:42:04.202Z,3.15
2023-03-28T23:44:31.257Z,2.78
2023-03-28T23:46:58.016Z,2.58
2023-03-28T23:49:24.528Z,2.47
2023-03-28T23:51:51.054Z,2.58
2023-03-28T23:54:18.594Z,2.80
2023-03-28T23:56:46.009Z,2.67
2023-03-28T23:59:12.727Z,2.50
